Terminal Aerodrome Forecast
Issued by NWS Charleston, WV

Current Version | Previous Version | Text Only | Print | Product List | Glossary Off
Versions: 1 2 3 4 5 6 7 8 9 10 11 12 13 14 15 16 17 18 19 20 21 22 23 24 25

970
FTUS41 KRLX 040907 AAA
TAFBKW
TAF AMD
KBKW 040907Z 0409/0506 VRB03KT P6SM SCT007 BKN040 OVC060
      TEMPO 0409/0412 BKN007 BKN040 OVC060
     FM041400 26005KT P6SM BKN015
     FM041600 27006KT P6SM BKN025
     FM042200 27006KT 6SM SHRA BR VCTS BKN040CB=

USA.gov is the U.S. government's official web portal to all federal, state and local government web resources and services.